Kings Mountain, North Carolina
Current Conditions -  °F | °C
As of 3:54 PM on Saturday 25 Oct 2014 (Local Time) from KAKH Reporting Station
Clear Clear  
Wind Chill: 73°   Ceiling: Unl
Heat Index: 73°   Visibility: 10mi
Dew Point: 37°   Wind: 7mph
Humidity: 27%   Direction: 190°S
Pressure: 29.95"   Gusts: NA
Location:  35.24°N, 81.34°W
Report Text: KAKH 251954Z AUTO 19006KT 10SM CLR 23/03 A2995 RMK AO2 SLP140 T02280028
Loading
Personal Weather Stations






























Interactive Weather Map New forecast layout! Learn more

10-Day Weather Forecast

Advertisements
Track Severe Weather on mobile